Time;durP1;ratioP1;P1;durP2;ratioP2;P2;SDS_P1;SDS_P2;PMS_P1;PMS_P2;Temp;Humidity;BMP_temperature;BMP_pressure;BME280_temperature;BME280_humidity;BME280_pressure;Samples;Min_cycle;Max_cycle;Signal;HPM_P1;HPM_P2
2021/05/30 00:00:24;;;;;;;21.17;18.35;;;22.90;40.10;;;;;;5094188;28;20028;-62
2021/05/30 00:02:50;;;;;;;19.10;17.10;;;22.80;40.00;;;;;;5093138;28;20035;-61
2021/05/30 00:05:16;;;;;;;19.08;16.88;;;22.80;40.00;;;;;;5093540;28;20102;-63
2021/05/30 00:07:42;;;;;;;19.38;17.33;;;22.80;40.00;;;;;;5093945;28;20028;-63
2021/05/30 00:10:08;;;;;;;18.10;15.57;;;22.80;39.90;;;;;;5093563;28;20434;-62
2021/05/30 00:12:35;;;;;;;18.60;16.55;;;22.80;39.90;;;;;;5092595;28;20012;-63
2021/05/30 00:15:03;;;;;;;20.20;16.63;;;22.80;39.90;;;;;;5092306;28;20093;-62
2021/05/30 00:17:29;;;;;;;17.52;15.68;;;22.80;39.80;;;;;;5092767;28;20024;-63
2021/05/30 00:19:54;;;;;;;17.30;15.10;;;22.70;39.80;;;;;;5093719;28;20036;-65
2021/05/30 00:22:20;;;;;;;17.77;15.88;;;22.70;39.80;;;;;;5091685;28;20028;-61
2021/05/30 00:24:46;;;;;;;17.30;14.73;;;22.70;39.70;;;;;;5092968;28;20375;-59
2021/05/30 00:27:12;;;;;;;17.40;15.60;;;22.70;39.70;;;;;;5092205;28;20103;-62
2021/05/30 00:29:38;;;;;;;16.80;15.00;;;22.70;39.70;;;;;;5093597;28;20024;-61
2021/05/30 00:32:04;;;;;;;16.98;15.18;;;22.70;39.70;;;;;;5092725;28;20083;-62
2021/05/30 00:34:29;;;;;;;16.35;14.68;;;22.70;39.70;;;;;;5093343;28;20336;-62
2021/05/30 00:36:55;;;;;;;15.05;13.52;;;22.70;39.60;;;;;;5093307;28;20036;-61
2021/05/30 00:39:21;;;;;;;16.08;14.38;;;22.60;39.50;;;;;;5092430;28;20127;-62
2021/05/30 00:41:47;;;;;;;15.68;14.07;;;22.70;39.50;;;;;;5091697;28;20032;-61
2021/05/30 00:44:24;;;;;;;14.30;12.82;;;22.70;39.50;;;;;;5093562;28;20028;-61
2021/05/30 00:46:54;;;;;;;14.82;13.30;;;22.60;39.40;;;;;;5093582;28;20031;-60
2021/05/30 00:49:20;;;;;;;14.57;13.07;;;22.60;39.50;;;;;;5092585;28;20028;-62
2021/05/30 00:51:47;;;;;;;14.18;12.55;;;22.60;39.50;;;;;;5092360;28;20039;-59
2021/05/30 00:54:13;;;;;;;15.40;13.80;;;22.60;39.40;;;;;;5092525;28;20056;-60
2021/05/30 00:56:41;;;;;;;14.40;12.88;;;22.60;39.40;;;;;;5091970;28;20358;-61
2021/05/30 00:59:08;;;;;;;13.93;12.52;;;22.60;39.40;;;;;;5092247;28;20520;-61
2021/05/30 01:01:34;;;;;;;13.60;12.20;;;22.60;39.40;;;;;;5092615;28;20028;-61
2021/05/30 01:04:00;;;;;;;12.82;11.52;;;22.50;39.40;;;;;;5092080;28;20039;-61
2021/05/30 01:06:26;;;;;;;13.60;12.23;;;22.60;39.40;;;;;;5095181;28;20035;-62
2021/05/30 01:08:52;;;;;;;14.77;13.23;;;22.50;39.30;;;;;;5096564;28;20028;-61
2021/05/30 01:11:22;;;;;;;12.82;11.48;;;22.50;39.40;;;;;;5096480;28;20024;-63
2021/05/30 01:13:51;;;;;;;13.45;12.02;;;22.50;39.40;;;;;;5097230;28;20035;-60
2021/05/30 01:16:18;;;;;;;12.48;11.18;;;22.50;39.30;;;;;;5096349;28;20032;-61
2021/05/30 01:18:47;;;;;;;12.30;10.80;;;22.50;39.30;;;;;;5096418;28;20466;-61
2021/05/30 01:21:13;;;;;;;12.45;11.15;;;22.50;39.30;;;;;;5096450;28;20101;-62
2021/05/30 01:23:40;;;;;;;12.85;11.52;;;22.50;39.30;;;;;;5096728;28;20025;-63
2021/05/30 01:26:06;;;;;;;11.02;9.93;;;22.50;39.30;;;;;;5086663;28;20020;-63
2021/05/30 01:28:31;;;;;;;12.27;11.07;;;22.50;39.30;;;;;;5093434;28;20034;-63
2021/05/30 01:30:57;;;;;;;11.38;10.25;;;22.50;39.20;;;;;;5095286;28;20097;-63
2021/05/30 01:33:23;;;;;;;11.75;9.77;;;22.40;39.10;;;;;;5095455;28;20040;-61
2021/05/30 01:35:49;;;;;;;10.70;9.60;;;22.40;39.20;;;;;;5096288;28;20371;-63
2021/05/30 01:38:15;;;;;;;11.45;10.10;;;22.40;39.10;;;;;;5095324;28;20047;-63
2021/05/30 01:40:41;;;;;;;10.32;9.25;;;22.40;39.10;;;;;;5096520;28;20043;-61
2021/05/30 01:43:08;;;;;;;11.35;9.75;;;22.40;39.10;;;;;;5094970;28;20351;-61
2021/05/30 01:45:34;;;;;;;10.73;9.60;;;22.40;39.10;;;;;;5096468;28;20111;-63
2021/05/30 01:48:02;;;;;;;10.38;9.27;;;22.40;39.10;;;;;;5095720;28;20032;-62
2021/05/30 01:50:31;;;;;;;10.57;9.50;;;22.40;39.10;;;;;;5091421;28;20400;-63
2021/05/30 01:53:02;;;;;;;10.07;9.07;;;22.40;39.10;;;;;;5095119;28;20024;-63
2021/05/30 01:55:46;;;;;;;9.80;8.80;;;22.30;39.00;;;;;;5095644;28;20065;-63
2021/05/30 01:58:14;;;;;;;9.23;8.23;;;22.30;39.00;;;;;;5092001;28;20360;-63
2021/05/30 02:00:40;;;;;;;10.80;8.98;;;22.30;39.00;;;;;;5094904;28;20116;-63
2021/05/30 02:03:08;;;;;;;9.88;8.35;;;22.30;39.00;;;;;;5096195;28;20058;-62
2021/05/30 02:05:35;;;;;;;9.30;8.40;;;22.30;39.00;;;;;;5095690;28;20025;-62
2021/05/30 02:08:01;;;;;;;8.95;7.93;;;22.30;39.60;;;;;;5094320;28;20085;-63
2021/05/30 02:10:30;;;;;;;9.43;8.27;;;22.30;39.00;;;;;;5095286;28;20043;-63
2021/05/30 02:12:56;;;;;;;9.73;8.63;;;22.30;39.00;;;;;;5095843;28;20112;-60
2021/05/30 02:15:23;;;;;;;9.27;8.27;;;22.30;39.00;;;;;;5074803;28;20056;-62
2021/05/30 02:17:49;;;;;;;8.68;7.78;;;22.30;39.00;;;;;;5089852;28;20032;-62
2021/05/30 02:20:16;;;;;;;9.00;8.02;;;22.30;39.00;;;;;;5095356;28;20055;-62
2021/05/30 02:22:42;;;;;;;8.52;7.57;;;22.30;39.00;;;;;;5094891;28;20513;-60
2021/05/30 02:25:12;;;;;;;8.98;7.78;;;22.20;38.90;;;;;;5093707;28;20024;-61
2021/05/30 02:27:38;;;;;;;8.13;6.97;;;22.20;38.90;;;;;;5096079;28;20101;-63
2021/05/30 02:30:05;;;;;;;8.40;7.28;;;22.20;38.90;;;;;;5094136;28;20103;-62
2021/05/30 02:32:31;;;;;;;7.90;7.10;;;22.20;38.90;;;;;;5095803;28;20024;-60
2021/05/30 02:34:56;;;;;;;8.43;7.45;;;22.20;38.90;;;;;;5077243;28;20024;-62
2021/05/30 02:37:22;;;;;;;7.68;6.88;;;22.20;38.80;;;;;;5095704;28;20024;-63
2021/05/30 02:39:48;;;;;;;8.50;6.57;;;22.20;38.80;;;;;;5093985;28;20526;-62
2021/05/30 02:42:14;;;;;;;7.40;6.25;;;22.20;38.80;;;;;;5095528;28;20439;-62
2021/05/30 02:44:40;;;;;;;6.63;5.93;;;22.20;38.80;;;;;;5091305;28;20020;-62
2021/05/30 02:47:06;;;;;;;7.85;6.82;;;22.20;38.80;;;;;;5084224;28;20035;-62
2021/05/30 02:49:33;;;;;;;7.40;6.50;;;22.10;38.80;;;;;;5095185;28;20111;-61
2021/05/30 02:52:00;;;;;;;6.68;5.97;;;22.20;39.00;;;;;;5094757;28;20045;-60
2021/05/30 02:54:26;;;;;;;8.52;6.15;;;22.20;38.80;;;;;;5094592;28;20027;-62
2021/05/30 02:56:52;;;;;;;8.38;6.75;;;22.10;38.80;;;;;;5094923;28;20028;-61
2021/05/30 02:59:18;;;;;;;7.60;6.63;;;22.10;38.80;;;;;;5094772;28;20036;-61
2021/05/30 03:01:44;;;;;;;7.00;6.20;;;22.10;38.80;;;;;;5093502;28;20024;-62
2021/05/30 03:04:10;;;;;;;6.50;5.88;;;22.10;38.80;;;;;;5076670;28;20016;-62
2021/05/30 03:06:35;;;;;;;6.97;6.13;;;22.10;38.80;;;;;;5094171;28;20028;-62
2021/05/30 03:09:02;;;;;;;6.20;5.53;;;22.10;38.80;;;;;;5095524;28;20084;-61
2021/05/30 03:11:28;;;;;;;6.35;5.43;;;22.10;38.80;;;;;;5094433;28;20020;-60
2021/05/30 03:13:54;;;;;;;6.03;5.22;;;22.10;38.80;;;;;;5093206;28;20035;-63
2021/05/30 03:16:20;;;;;;;5.82;5.22;;;22.10;38.80;;;;;;5094676;28;20344;-62
2021/05/30 03:18:47;;;;;;;6.53;5.75;;;22.00;38.70;;;;;;5094235;28;20039;-63
2021/05/30 03:21:14;;;;;;;5.82;5.20;;;22.00;38.70;;;;;;5094934;28;20032;-62
2021/05/30 03:23:40;;;;;;;6.10;5.22;;;22.10;38.80;;;;;;5094015;28;20043;-63
2021/05/30 03:26:06;;;;;;;5.50;4.93;;;22.00;38.70;;;;;;5094305;28;20031;-60
2021/05/30 03:28:32;;;;;;;6.15;5.25;;;22.00;38.70;;;;;;5092517;28;20447;-61
2021/05/30 03:30:58;;;;;;;5.65;4.82;;;22.00;38.70;;;;;;5091173;28;20039;-62
2021/05/30 03:33:25;;;;;;;5.13;4.38;;;22.00;38.70;;;;;;5093433;28;20028;-62
2021/05/30 03:35:51;;;;;;;5.60;4.80;;;22.00;38.70;;;;;;5094864;28;20344;-61
2021/05/30 03:38:18;;;;;;;6.35;5.32;;;22.00;38.70;;;;;;5094389;28;20048;-60
2021/05/30 03:40:47;;;;;;;5.78;5.20;;;22.00;38.70;;;;;;5093907;28;20032;-62
2021/05/30 03:43:14;;;;;;;5.93;4.55;;;22.00;38.80;;;;;;5093762;28;20059;-60
2021/05/30 03:45:40;;;;;;;5.63;4.70;;;22.00;38.80;;;;;;5094332;28;20050;-61
2021/05/30 03:48:06;;;;;;;5.85;5.05;;;21.90;38.70;;;;;;5094040;28;20039;-61
2021/05/30 03:50:33;;;;;;;5.30;4.55;;;22.00;38.80;;;;;;5094624;28;20114;-63
2021/05/30 03:52:59;;;;;;;5.25;4.70;;;22.00;38.70;;;;;;5093820;28;20095;-61
2021/05/30 03:55:25;;;;;;;4.60;4.13;;;22.00;38.80;;;;;;5093758;28;20024;-61
2021/05/30 03:57:51;;;;;;;5.20;4.65;;;22.00;38.80;;;;;;5093228;28;20463;-62
2021/05/30 04:00:19;;;;;;;4.93;4.38;;;22.00;38.80;;;;;;5093487;28;20039;-61
2021/05/30 04:02:46;;;;;;;5.13;4.25;;;22.00;38.80;;;;;;5092627;28;20035;-60
2021/05/30 04:05:13;;;;;;;5.00;4.20;;;22.00;38.80;;;;;;5093490;28;20035;-60
2021/05/30 04:07:41;;;;;;;4.80;4.10;;;21.90;38.80;;;;;;5093799;28;20028;-60
2021/05/30 04:10:10;;;;;;;4.95;4.45;;;22.00;38.80;;;;;;5093828;28;20031;-62
2021/05/30 04:12:42;;;;;;;5.40;4.20;;;22.00;38.80;;;;;;5092512;28;20047;-62
2021/05/30 04:15:11;;;;;;;5.40;4.32;;;22.00;38.80;;;;;;5093003;28;20402;-62
2021/05/30 04:17:42;;;;;;;5.03;4.40;;;22.00;38.80;;;;;;5092821;28;20085;-62
2021/05/30 04:20:09;;;;;;;4.10;3.72;;;22.00;38.80;;;;;;5093330;28;20119;-60
2021/05/30 04:22:38;;;;;;;4.82;4.03;;;21.90;38.70;;;;;;5094110;28;20032;-61
2021/05/30 04:25:05;;;;;;;5.18;3.65;;;21.90;38.70;;;;;;5093240;28;20055;-62
2021/05/30 04:27:31;;;;;;;4.43;3.65;;;21.90;38.70;;;;;;5094169;28;20021;-62
2021/05/30 04:29:57;;;;;;;4.38;3.92;;;21.90;38.70;;;;;;5093292;28;20446;-63
2021/05/30 04:32:22;;;;;;;4.07;3.67;;;21.90;38.70;;;;;;5093608;28;20031;-62
2021/05/30 04:34:48;;;;;;;4.95;3.88;;;22.00;38.80;;;;;;5091605;28;20028;-61
2021/05/30 04:37:14;;;;;;;4.45;3.67;;;21.90;38.70;;;;;;5093627;28;20426;-61
2021/05/30 04:39:40;;;;;;;5.35;3.70;;;21.90;38.70;;;;;;5092672;28;20058;-61
2021/05/30 04:42:07;;;;;;;4.70;3.35;;;21.90;38.70;;;;;;5097396;28;20127;-62
2021/05/30 04:44:33;;;;;;;4.13;3.38;;;21.90;38.70;;;;;;5097066;28;20150;-62
2021/05/30 04:46:59;;;;;;;4.00;3.60;;;22.00;38.80;;;;;;5095809;28;20032;-61
2021/05/30 04:49:25;;;;;;;4.32;3.47;;;21.90;38.70;;;;;;5097071;28;20028;-59
2021/05/30 04:51:51;;;;;;;4.45;3.47;;;21.90;38.70;;;;;;5097289;28;20043;-61
2021/05/30 04:54:17;;;;;;;3.90;3.00;;;21.90;38.70;;;;;;5097800;28;20028;-61
2021/05/30 04:56:43;;;;;;;3.90;3.30;;;22.00;38.80;;;;;;5097455;28;20036;-62
2021/05/30 04:59:09;;;;;;;4.30;3.20;;;21.90;38.80;;;;;;5096690;28;20401;-63
2021/05/30 05:01:35;;;;;;;4.15;3.38;;;22.00;38.80;;;;;;5096710;28;20032;-61
2021/05/30 05:04:01;;;;;;;4.20;3.22;;;21.90;38.80;;;;;;5095684;28;20094;-61
2021/05/30 05:06:26;;;;;;;3.33;2.97;;;21.90;38.80;;;;;;5097396;28;20065;-61
2021/05/30 05:08:53;;;;;;;4.47;3.00;;;21.90;38.80;;;;;;5096476;28;20053;-61
2021/05/30 05:11:19;;;;;;;4.03;3.33;;;21.90;38.80;;;;;;5097062;28;20032;-62
2021/05/30 05:13:46;;;;;;;3.65;3.30;;;22.00;38.80;;;;;;5096783;28;20043;-61
2021/05/30 05:16:12;;;;;;;4.03;3.42;;;21.90;38.80;;;;;;5096861;28;20036;-62
2021/05/30 05:18:37;;;;;;;3.33;2.90;;;21.90;38.80;;;;;;5096034;28;20440;-60
2021/05/30 05:21:05;;;;;;;3.53;2.90;;;22.00;38.90;;;;;;5096526;28;20028;-60
2021/05/30 05:23:31;;;;;;;3.53;3.10;;;22.00;38.90;;;;;;5097060;28;20092;-62
2021/05/30 05:26:03;;;;;;;3.88;3.00;;;22.00;38.90;;;;;;5094555;28;20074;-61
2021/05/30 05:28:30;;;;;;;4.20;3.13;;;22.00;38.90;;;;;;5095463;28;20028;-60
2021/05/30 05:30:56;;;;;;;3.67;3.10;;;22.00;39.00;;;;;;5095841;28;20036;-62
2021/05/30 05:33:25;;;;;;;4.00;3.20;;;22.00;39.00;;;;;;5096040;28;20032;-61
2021/05/30 05:35:51;;;;;;;3.72;3.10;;;22.00;39.00;;;;;;5094548;28;20359;-63
2021/05/30 05:38:18;;;;;;;4.28;3.03;;;22.00;39.00;;;;;;5079750;28;20035;-61
2021/05/30 05:40:44;;;;;;;3.95;3.22;;;22.00;39.00;;;;;;5095695;28;20359;-61
2021/05/30 05:43:10;;;;;;;3.35;2.78;;;22.00;39.10;;;;;;5095098;28;20047;-62
2021/05/30 05:45:37;;;;;;;3.65;2.90;;;22.00;39.10;;;;;;5096096;28;20020;-58
2021/05/30 05:48:08;;;;;;;3.45;3.03;;;22.00;39.10;;;;;;5093244;28;20129;-61
2021/05/30 05:50:34;;;;;;;3.47;3.03;;;22.00;39.20;;;;;;5092439;28;20036;-60
2021/05/30 05:53:00;;;;;;;3.58;2.80;;;22.00;39.20;;;;;;5091708;28;20024;-61
2021/05/30 05:55:26;;;;;;;3.83;2.80;;;22.00;39.20;;;;;;5094554;28;20401;-61
2021/05/30 05:57:53;;;;;;;3.05;2.55;;;22.00;39.20;;;;;;5093892;28;20032;-59
2021/05/30 06:00:22;;;;;;;2.78;2.47;;;22.00;39.20;;;;;;5094333;28;20453;-60
2021/05/30 06:02:52;;;;;;;3.13;2.63;;;22.00;39.20;;;;;;5092521;28;20363;-63
2021/05/30 06:05:20;;;;;;;2.83;2.60;;;22.00;39.20;;;;;;5095295;28;20028;-58
2021/05/30 06:07:46;;;;;;;3.83;2.80;;;22.00;39.30;;;;;;5091901;28;20073;-61
2021/05/30 06:10:14;;;;;;;5.03;3.28;;;22.00;39.30;;;;;;5086707;28;20031;-62
2021/05/30 06:12:40;;;;;;;3.40;2.83;;;22.00;39.40;;;;;;5092533;28;20016;-61
2021/05/30 06:15:07;;;;;;;3.67;3.10;;;22.00;39.40;;;;;;5095020;28;20024;-61
2021/05/30 06:17:34;;;;;;;3.83;2.90;;;22.00;39.40;;;;;;5093402;28;20032;-62
2021/05/30 06:20:00;;;;;;;3.20;2.58;;;22.00;39.40;;;;;;5094256;28;20127;-62
2021/05/30 06:22:27;;;;;;;3.90;2.95;;;22.00;39.40;;;;;;5093348;28;20075;-62
2021/05/30 06:24:53;;;;;;;4.05;2.88;;;22.00;39.40;;;;;;5091704;28;20039;-62
2021/05/30 06:27:20;;;;;;;4.32;2.83;;;22.00;39.40;;;;;;5093302;28;20039;-62
2021/05/30 06:29:46;;;;;;;3.47;2.88;;;22.00;39.40;;;;;;5092830;28;20032;-60
2021/05/30 06:32:12;;;;;;;3.58;2.97;;;22.00;39.40;;;;;;5093243;28;20036;-61
2021/05/30 06:34:38;;;;;;;4.10;3.25;;;22.00;39.40;;;;;;5094054;28;21711;-60
2021/05/30 06:37:04;;;;;;;3.85;3.38;;;22.00;39.40;;;;;;5091351;28;20390;-62
2021/05/30 06:39:29;;;;;;;5.55;2.90;;;22.00;40.00;;;;;;5092757;28;20086;-61
2021/05/30 06:41:55;;;;;;;3.35;3.05;;;22.00;39.40;;;;;;5093511;28;20498;-62
2021/05/30 06:44:21;;;;;;;3.92;3.53;;;22.00;39.40;;;;;;5080399;28;20024;-62
2021/05/30 06:46:47;;;;;;;5.05;4.20;;;22.10;39.40;;;;;;5094383;28;20063;-59
2021/05/30 06:49:13;;;;;;;4.53;3.85;;;22.00;39.40;;;;;;5089537;28;20036;-61
2021/05/30 06:51:39;;;;;;;5.07;4.35;;;22.10;39.50;;;;;;5092721;28;20030;-61
2021/05/30 06:54:06;;;;;;;5.30;4.53;;;22.00;39.40;;;;;;5093070;28;20020;-59
2021/05/30 06:56:32;;;;;;;6.40;5.30;;;22.10;39.50;;;;;;5092692;28;20504;-62
2021/05/30 06:58:59;;;;;;;7.30;6.13;;;22.10;39.60;;;;;;5093126;28;20040;-59
2021/05/30 07:01:25;;;;;;;6.25;5.68;;;22.10;40.30;;;;;;5091149;28;20127;-61
2021/05/30 07:03:52;;;;;;;6.10;5.50;;;22.10;39.70;;;;;;5093269;28;20020;-61
2021/05/30 07:06:19;;;;;;;6.28;5.68;;;22.10;39.70;;;;;;5093245;28;20036;-63
2021/05/30 07:08:45;;;;;;;6.65;6.03;;;22.10;39.70;;;;;;5090621;28;20032;-60
2021/05/30 07:11:12;;;;;;;7.15;6.43;;;22.10;39.80;;;;;;5092814;28;20080;-62
2021/05/30 07:13:39;;;;;;;8.57;7.22;;;22.10;39.90;;;;;;5090879;28;20363;-58
2021/05/30 07:16:05;;;;;;;7.57;6.20;;;22.10;39.90;;;;;;5092440;28;20106;-58
2021/05/30 07:18:31;;;;;;;7.80;6.53;;;22.10;39.90;;;;;;5090755;28;20188;-59
2021/05/30 07:20:58;;;;;;;7.43;6.60;;;22.10;39.90;;;;;;5090863;28;20120;-60
2021/05/30 07:23:24;;;;;;;8.57;7.40;;;22.10;39.90;;;;;;5092010;28;20062;-60
2021/05/30 07:25:51;;;;;;;8.77;7.63;;;22.10;39.90;;;;;;5093900;28;20063;-61
2021/05/30 07:28:17;;;;;;;9.45;8.32;;;22.10;40.00;;;;;;5094868;28;20039;-60
2021/05/30 07:30:43;;;;;;;10.02;8.80;;;22.10;40.10;;;;;;5094333;28;20351;-61
2021/05/30 07:33:09;;;;;;;9.50;8.50;;;22.10;40.10;;;;;;5092625;28;20050;-62
2021/05/30 07:35:36;;;;;;;10.02;8.80;;;22.10;40.20;;;;;;5093030;28;20035;-59
2021/05/30 07:38:03;;;;;;;9.73;8.70;;;22.20;40.20;;;;;;5091642;28;20040;-62
2021/05/30 07:40:29;;;;;;;10.43;9.32;;;22.20;40.30;;;;;;5091233;28;20036;-58
2021/05/30 07:42:55;;;;;;;11.02;8.93;;;22.20;40.30;;;;;;5091503;28;20405;-56
2021/05/30 07:45:23;;;;;;;10.60;9.55;;;22.20;40.40;;;;;;5092030;28;20047;-57
2021/05/30 07:47:49;;;;;;;10.98;9.45;;;22.20;40.40;;;;;;5089773;28;20032;-61
2021/05/30 07:50:17;;;;;;;10.38;9.25;;;22.20;40.40;;;;;;5090398;28;20054;-60
2021/05/30 07:52:43;;;;;;;10.95;9.95;;;22.20;40.50;;;;;;5089398;28;20039;-58
2021/05/30 07:55:09;;;;;;;12.25;10.98;;;22.20;40.60;;;;;;5091832;28;20027;-58
2021/05/30 07:57:36;;;;;;;12.05;10.85;;;22.20;40.60;;;;;;5091842;28;20032;-60
2021/05/30 08:00:05;;;;;;;13.07;11.65;;;22.20;40.70;;;;;;5091270;28;20063;-58
2021/05/30 08:02:38;;;;;;;13.05;11.65;;;22.20;40.80;;;;;;5091667;28;20063;-57
2021/05/30 08:05:05;;;;;;;13.43;12.00;;;22.20;40.90;;;;;;5090726;28;20470;-57
2021/05/30 08:07:31;;;;;;;15.48;12.85;;;22.30;41.00;;;;;;5092696;28;20056;-56
2021/05/30 08:09:57;;;;;;;13.55;12.15;;;22.30;41.10;;;;;;5091236;28;20055;-60
2021/05/30 08:12:24;;;;;;;12.90;11.45;;;22.30;41.00;;;;;;5090804;28;20047;-59
2021/05/30 08:14:50;;;;;;;12.32;11.02;;;22.30;41.10;;;;;;5093133;28;20052;-62
2021/05/30 08:17:17;;;;;;;12.18;10.52;;;22.20;41.00;;;;;;5093302;28;20071;-63
2021/05/30 08:19:42;;;;;;;11.45;10.30;;;22.30;41.00;;;;;;5095983;28;20521;-62
2021/05/30 08:22:08;;;;;;;10.63;9.52;;;22.30;41.00;;;;;;5092311;28;20023;-60
2021/05/30 08:24:37;;;;;;;10.55;9.45;;;22.30;41.10;;;;;;5092969;28;20081;-59
2021/05/30 08:27:03;;;;;;;10.73;9.10;;;22.30;41.10;;;;;;5093014;28;20418;-57
2021/05/30 08:29:29;;;;;;;11.00;9.00;;;22.30;41.10;;;;;;5093834;28;20028;-58
2021/05/30 08:31:55;;;;;;;9.00;7.70;;;22.30;41.10;;;;;;5094945;28;20088;-63
2021/05/30 08:34:21;;;;;;;7.00;6.07;;;22.30;41.10;;;;;;5094642;28;20051;-59
2021/05/30 08:36:48;;;;;;;3.92;3.53;;;22.30;40.90;;;;;;5094016;28;20024;-59
2021/05/30 08:39:14;;;;;;;3.00;2.47;;;22.40;40.50;;;;;;5092186;28;20070;-61
2021/05/30 08:41:41;;;;;;;3.10;2.78;;;22.40;40.10;;;;;;5094006;28;20028;-60
2021/05/30 08:44:09;;;;;;;3.20;2.40;;;22.30;39.90;;;;;;5095908;28;20055;-61
2021/05/30 08:46:35;;;;;;;5.20;4.53;;;22.30;39.80;;;;;;5094234;28;20020;-62
2021/05/30 08:49:01;;;;;;;7.30;6.57;;;22.30;40.00;;;;;;5095483;28;20447;-62
2021/05/30 08:51:28;;;;;;;8.45;7.55;;;22.30;40.20;;;;;;5093137;28;20035;-61
2021/05/30 08:53:53;;;;;;;11.40;9.73;;;22.30;40.40;;;;;;5088489;28;20048;-64
2021/05/30 08:56:20;;;;;;;16.27;12.18;;;22.30;40.70;;;;;;5098053;28;20497;-62
2021/05/30 08:58:48;;;;;;;18.38;13.52;;;22.30;41.50;;;;;;5096745;28;20063;-66
2021/05/30 09:01:22;;;;;;;15.38;12.20;;;22.30;42.10;;;;;;5096883;28;20351;-57
2021/05/30 09:03:52;;;;;;;17.35;12.93;;;22.40;42.40;;;;;;5096456;28;20451;-59
2021/05/30 09:06:19;;;;;;;16.98;13.18;;;22.40;42.50;;;;;;5097098;28;20028;-57
2021/05/30 09:08:48;;;;;;;13.90;11.48;;;22.40;42.50;;;;;;5096893;28;20737;-61
2021/05/30 09:11:14;;;;;;;13.60;11.63;;;22.40;42.40;;;;;;5096875;28;20036;-64
2021/05/30 09:13:59;;;;;;;15.25;12.80;;;22.50;42.30;;;;;;5096846;28;20031;-59
2021/05/30 09:17:02;;;;;;;14.43;11.93;;;22.50;42.20;;;;;;5092604;28;20024;-60
2021/05/30 09:19:49;;;;;;;16.90;13.48;;;22.50;42.90;;;;;;5081461;28;20051;-60
2021/05/30 09:22:15;;;;;;;22.20;16.05;;;22.50;42.80;;;;;;5096982;28;20035;-59
2021/05/30 09:24:50;;;;;;;25.67;19.08;;;22.60;43.60;;;;;;5097336;28;20028;-61
2021/05/30 09:27:17;;;;;;;25.30;19.08;;;22.60;44.50;;;;;;5095642;28;20036;-51
2021/05/30 09:29:43;;;;;;;26.20;19.90;;;22.70;44.90;;;;;;5097210;28;20036;-58
2021/05/30 09:32:09;;;;;;;28.42;21.08;;;22.70;45.30;;;;;;5086804;28;20309;-57
2021/05/30 09:34:37;;;;;;;33.03;22.60;;;22.70;45.60;;;;;;5091592;28;20332;-54
2021/05/30 09:37:05;;;;;;;22.70;15.30;;;22.80;46.30;;;;;;5096049;28;20096;-54
2021/05/30 09:39:41;;;;;;;13.05;8.48;;;22.80;46.40;;;;;;5097263;28;20040;-53
2021/05/30 09:42:34;;;;;;;10.80;7.82;;;22.80;44.10;;;;;;5096920;28;20036;-58
2021/05/30 09:45:10;;;;;;;8.10;6.20;;;22.80;43.50;;;;;;5096573;28;20499;-59
2021/05/30 09:47:46;;;;;;;9.50;6.68;;;22.80;43.20;;;;;;5096125;28;20036;-57
2021/05/30 09:50:18;;;;;;;11.32;8.65;;;22.80;42.90;;;;;;5076613;28;20380;-58
2021/05/30 09:52:50;;;;;;;13.48;10.95;;;22.70;43.20;;;;;;5087566;28;20039;-61
2021/05/30 09:55:26;;;;;;;15.48;12.00;;;22.80;44.10;;;;;;5076962;28;20032;-60
2021/05/30 09:58:15;;;;;;;16.75;13.40;;;22.80;45.20;;;;;;5095051;28;20024;-57
2021/05/30 10:00:43;;;;;;;17.50;12.05;;;22.90;46.20;;;;;;5087059;28;20028;-60
2021/05/30 10:03:09;;;;;;;15.38;12.18;;;22.90;46.10;;;;;;5095439;28;20023;-62
2021/05/30 10:05:37;;;;;;;16.75;12.77;;;23.00;46.00;;;;;;5095423;28;20024;-61
2021/05/30 10:08:04;;;;;;;14.60;11.82;;;23.00;45.60;;;;;;5095260;28;20447;-63
2021/05/30 10:10:31;;;;;;;15.30;12.05;;;23.00;45.20;;;;;;5095766;28;20027;-61
2021/05/30 10:12:59;;;;;;;19.33;14.70;;;23.10;45.00;;;;;;5096286;28;20102;-62
2021/05/30 10:15:25;;;;;;;18.98;15.48;;;23.10;45.30;;;;;;5095513;28;20031;-60
2021/05/30 10:17:54;;;;;;;18.05;15.05;;;23.10;45.70;;;;;;5096074;28;20032;-62
2021/05/30 10:20:23;;;;;;;19.58;13.80;;;23.10;45.60;;;;;;5092358;28;20020;-59
2021/05/30 10:22:56;;;;;;;15.98;13.50;;;23.20;45.40;;;;;;5082029;28;20039;-59
2021/05/30 10:25:30;;;;;;;16.17;13.70;;;23.20;45.10;;;;;;5094200;28;20035;-57
2021/05/30 10:28:23;;;;;;;;;;;23.20;44.60;;;;;;5089155;28;20024;-56
2021/05/30 10:31:10;;;;;;;14.63;13.02;;;23.10;44.40;;;;;;5091265;28;19919;-60
2021/05/30 10:33:36;;;;;;;19.67;12.88;;;23.20;44.10;;;;;;5076940;28;20036;-54
2021/05/30 10:36:11;;;;;;;16.10;12.77;;;23.20;43.70;;;;;;5079507;28;20024;-59
2021/05/30 10:38:43;;;;;;;12.27;11.00;;;23.20;43.20;;;;;;5071738;28;20043;-58
2021/05/30 10:41:17;;;;;;;12.82;11.20;;;23.20;43.00;;;;;;5085166;28;20053;-57
2021/05/30 10:43:44;;;;;;;12.65;11.07;;;23.20;42.70;;;;;;5092434;28;20355;-54
2021/05/30 10:46:12;;;;;;;13.63;12.25;;;23.20;42.50;;;;;;5094236;28;20024;-55
2021/05/30 10:48:40;;;;;;;16.08;13.73;;;23.20;42.30;;;;;;5090981;28;20055;-57
2021/05/30 10:53:51;;;;;;;14.70;13.10;;;23.30;42.10;;;;;;5090552;28;20032;-59
2021/05/30 10:56:30;;;;;;;14.50;12.95;;;23.30;41.90;;;;;;5089990;28;20024;-57
2021/05/30 10:59:15;;;;;;;14.95;13.30;;;23.30;41.70;;;;;;5091145;28;20534;-58
2021/05/30 11:01:47;;;;;;;14.68;13.18;;;23.30;41.50;;;;;;5083805;28;20043;-57
2021/05/30 11:04:31;;;;;;;13.27;11.88;;;23.30;41.30;;;;;;5092842;28;20093;-57
2021/05/30 11:07:01;;;;;;;12.23;10.95;;;23.30;41.10;;;;;;5093097;28;20034;-56
2021/05/30 11:09:48;;;;;;;12.65;11.35;;;23.30;40.90;;;;;;5093114;28;20122;-56
2021/05/30 11:12:21;;;;;;;11.85;10.65;;;23.30;40.50;;;;;;5092931;28;20028;-58
2021/05/30 11:15:16;;;;;;;11.32;10.15;;;23.40;40.50;;;;;;5093374;28;20100;-58
2021/05/30 11:17:49;;;;;;;11.13;9.88;;;23.40;40.20;;;;;;5092628;28;20039;-55
2021/05/30 11:20:16;;;;;;;10.98;9.85;;;23.40;40.20;;;;;;5090914;28;20351;-55
2021/05/30 11:22:57;;;;;;;11.23;9.95;;;23.40;40.10;;;;;;5090707;28;20039;-58
2021/05/30 11:25:40;;;;;;;10.50;9.40;;;23.40;40.00;;;;;;5092318;28;20028;-56
2021/05/30 11:28:09;;;;;;;10.32;9.23;;;23.50;39.80;;;;;;5088492;28;20035;-56
2021/05/30 11:30:53;;;;;;;10.65;9.30;;;23.40;39.60;;;;;;5092334;28;20123;-60
2021/05/30 11:33:22;;;;;;;10.10;9.10;;;23.50;39.60;;;;;;5089317;28;20115;-54
2021/05/30 11:35:55;;;;;;;9.55;8.55;;;23.50;39.40;;;;;;5092558;28;20042;-58
2021/05/30 11:38:35;;;;;;;10.23;9.02;;;23.50;39.40;;;;;;5092425;28;20032;-58
2021/05/30 11:41:18;;;;;;;9.43;8.50;;;23.50;39.20;;;;;;5093064;28;20091;-57
2021/05/30 11:44:03;;;;;;;9.48;8.48;;;23.50;39.10;;;;;;5088961;28;20123;-59
2021/05/30 11:46:32;;;;;;;9.73;8.75;;;23.50;39.00;;;;;;5085220;28;20054;-56
2021/05/30 11:49:04;;;;;;;11.13;8.60;;;23.60;39.10;;;;;;5092120;28;20062;-58
2021/05/30 11:52:07;;;;;;;9.65;8.60;;;23.60;39.00;;;;;;5091026;28;20032;-59
2021/05/30 11:54:42;;;;;;;9.38;7.20;;;23.60;39.10;;;;;;5084348;28;20040;-56
2021/05/30 11:57:13;;;;;;;8.40;7.50;;;23.70;39.10;;;;;;5090670;28;20040;-58
2021/05/30 11:59:45;;;;;;;8.50;7.60;;;23.70;38.80;;;;;;5090871;28;20185;-58
2021/05/30 12:02:27;;;;;;;7.80;6.95;;;23.80;38.70;;;;;;5089620;28;20503;-59
2021/05/30 12:05:02;;;;;;;7.65;6.60;;;23.80;38.50;;;;;;5092970;28;20032;-56
2021/05/30 12:07:28;;;;;;;8.18;7.28;;;23.90;38.40;;;;;;5088579;28;20436;-53
2021/05/30 12:09:59;;;;;;;7.57;6.75;;;23.90;38.30;;;;;;5090913;28;20027;-54
2021/05/30 12:12:29;;;;;;;9.68;7.95;;;24.00;38.10;;;;;;5091605;28;20550;-56
2021/05/30 12:15:00;;;;;;;7.50;6.65;;;24.10;37.90;;;;;;5091410;28;20039;-58
2021/05/30 12:17:26;;;;;;;6.72;5.97;;;24.10;38.50;;;;;;5090380;28;20024;-61
2021/05/30 12:19:52;;;;;;;6.60;5.18;;;24.20;37.80;;;;;;5080647;28;20113;-56
2021/05/30 12:22:28;;;;;;;6.40;4.43;;;24.30;37.80;;;;;;5091588;28;20039;-60
2021/05/30 12:24:58;;;;;;;5.97;4.50;;;24.40;37.60;;;;;;5091169;28;20124;-54
2021/05/30 12:27:26;;;;;;;4.10;3.40;;;24.40;37.40;;;;;;5090079;28;20459;-59
2021/05/30 12:29:54;;;;;;;5.20;4.70;;;24.50;37.20;;;;;;5089419;28;20105;-61
2021/05/30 12:32:23;;;;;;;6.22;4.25;;;24.60;37.10;;;;;;5086788;28;20161;-64
2021/05/30 12:34:51;;;;;;;6.38;4.20;;;24.60;37.10;;;;;;5092115;28;20111;-60
2021/05/30 12:37:18;;;;;;;4.88;4.32;;;24.60;37.00;;;;;;5092413;28;20561;-59
2021/05/30 12:39:45;;;;;;;4.32;3.92;;;24.70;36.90;;;;;;5090336;28;20032;-62
2021/05/30 12:42:18;;;;;;;4.60;3.83;;;24.80;36.80;;;;;;5091763;28;20371;-60
2021/05/30 12:44:52;;;;;;;3.88;3.47;;;24.80;36.60;;;;;;5091083;28;21043;-62
2021/05/30 12:47:21;;;;;;;4.07;3.67;;;24.90;36.40;;;;;;5088641;28;20027;-61
2021/05/30 12:50:02;;;;;;;4.82;3.47;;;24.90;36.30;;;;;;5088463;28;20016;-64